Time;durP1;ratioP1;P1;durP2;ratioP2;P2;SDS_P1;SDS_P2;PMS_P1;PMS_P2;Temp;Humidity;BMP_temperature;BMP_pressure;BME280_temperature;BME280_humidity;BME280_pressure;Samples;Min_cycle;Max_cycle;Signal;HPM_P1;HPM_P2
2023/09/01 00:00:22;;;;;;;;;;;;;;;26.57;30.42;100081.69;5114545;28;19922;-67
2023/09/01 00:02:47;;;;;;;;;;;;;;;26.60;30.40;100080.28;5100687;28;19918;-67
2023/09/01 00:05:12;;;;;;;;;;;;;;;26.61;30.60;100084.66;5093992;28;19943;-67
2023/09/01 00:07:37;;;;;;;;;;;;;;;26.61;30.60;100084.66;5094097;28;19965;-67
2023/09/01 00:10:04;;;;;;;;;;;;;;;26.59;30.54;100084.13;5074701;28;19916;-67
2023/09/01 00:12:30;;;;;;;;;;;;;;;26.60;30.48;100085.81;5073962;28;19916;-67
2023/09/01 00:14:56;;;;;;;;;;;;;;;26.58;30.58;100085.28;5086408;28;20319;-66
2023/09/01 00:17:22;;;;;;;;;;;;;;;26.57;31.01;100089.94;5095118;28;19923;-67
2023/09/01 00:19:47;;;;;;;;;;;;;;;26.59;30.59;100087.69;5093669;28;19912;-67
2023/09/01 00:22:12;;;;;;;;;;;;;;;26.61;30.70;100088.22;5093311;28;19971;-67
2023/09/01 00:24:37;;;;;;;;;;;;;;;26.57;30.96;100084.44;5093813;28;19954;-67
2023/09/01 00:27:03;;;;;;;;;;;;;;;26.57;31.01;100095.44;5093932;28;20367;-67
2023/09/01 00:29:28;;;;;;;;;;;;;;;26.51;30.87;100084.88;5093607;28;19923;-67
2023/09/01 00:31:54;;;;;;;;;;;;;;;26.59;30.79;100097.91;5093538;28;19912;-67
2023/09/01 00:34:19;;;;;;;;;;;;;;;26.58;30.63;100099.03;5086126;28;19916;-67
2023/09/01 00:36:45;;;;;;;;;;;;;;;26.59;30.60;100101.47;5073139;28;19944;-67
2023/09/01 00:39:10;;;;;;;;;;;;;;;26.61;30.62;100098.44;5073357;28;19920;-67
2023/09/01 00:41:36;;;;;;;;;;;;;;;26.61;30.49;100103.94;5073012;28;19924;-67
2023/09/01 00:44:05;;;;;;;;;;;;;;;26.57;30.68;100100.97;5078159;28;19923;-67
2023/09/01 00:46:31;;;;;;;;;;;;;;;26.58;30.79;100101.81;5073205;28;20007;-66
2023/09/01 00:48:57;;;;;;;;;;;;;;;26.59;30.37;100106.16;5086141;28;19995;-67
2023/09/01 00:51:22;;;;;;;;;;;;;;;26.51;30.82;100104.16;5093403;28;20395;-68
2023/09/01 00:53:48;;;;;;;;;;;;;;;26.53;30.64;100112.91;5092750;28;20392;-67
2023/09/01 00:56:14;;;;;;;;;;;;;;;26.53;30.34;100112.91;5106467;28;20413;-67
2023/09/01 00:58:39;;;;;;;;;;;;;;;26.54;30.39;100117.28;5100565;28;19916;-67
2023/09/01 01:01:04;;;;;;;;;;;;;;;26.55;30.53;100117.00;5072954;28;19986;-67
2023/09/01 01:03:30;;;;;;;;;;;;;;;26.56;30.52;100115.03;5072317;28;19974;-67
2023/09/01 01:06:09;;;;;;;;;;;;;;;26.56;30.55;100115.03;5072680;28;20365;-67
2023/09/01 01:08:46;;;;;;;;;;;;;;;26.54;30.59;100115.38;5072814;28;19966;-67
2023/09/01 01:11:19;;;;;;;;;;;;;;;26.54;30.59;100125.56;5085594;28;19938;-67
2023/09/01 01:13:46;;;;;;;;;;;;;;;26.54;30.47;100125.56;5092300;28;19961;-65
2023/09/01 01:16:13;;;;;;;;;;;;;;;26.54;30.74;100126.38;5092857;28;19923;-66
2023/09/01 01:18:39;;;;;;;;;;;;;;;26.51;30.80;100118.75;5092653;28;19916;-66
2023/09/01 01:21:08;;;;;;;;;;;;;;;26.53;30.54;100123.94;5092670;28;19961;-66
2023/09/01 01:23:34;;;;;;;;;;;;;;;26.51;30.97;100117.94;5092708;28;19995;-66
2023/09/01 01:25:59;;;;;;;;;;;;;;;26.48;30.88;100124.03;5092688;28;19950;-66
2023/09/01 01:28:25;;;;;;;;;;;;;;;26.44;30.77;100123.84;5091582;28;19954;-67
2023/09/01 01:30:50;;;;;;;;;;;;;;;26.44;31.11;100121.09;5092522;28;20037;-66
2023/09/01 01:33:18;;;;;;;;;;;;;;;26.38;31.00;100119.56;5093014;28;19916;-66
2023/09/01 01:36:03;;;;;;;;;;;;;;;26.34;31.09;100124.06;5092988;28;19917;-66
2023/09/01 01:38:29;;;;;;;;;;;;;;;26.34;31.06;100124.88;5092887;28;20527;-66
2023/09/01 01:40:59;;;;;;;;;;;;;;;26.33;31.02;100117.75;5092925;28;20273;-66
2023/09/01 01:43:25;;;;;;;;;;;;;;;26.24;31.20;100120.41;5092345;28;19974;-67
2023/09/01 01:45:52;;;;;;;;;;;;;;;26.21;31.35;100121.03;5092898;28;19918;-67
2023/09/01 01:48:18;;;;;;;;;;;;;;;26.15;31.28;100119.50;5092905;28;19912;-66
2023/09/01 01:50:43;;;;;;;;;;;;;;;26.15;31.03;100118.66;5092705;28;19916;-66
2023/09/01 01:53:08;;;;;;;;;;;;;;;26.10;31.22;100113.28;5092871;28;19916;-66
2023/09/01 01:55:34;;;;;;;;;;;;;;;26.06;31.05;100115.84;5099851;28;20412;-66
2023/09/01 01:58:01;;;;;;;;;;;;;;;26.02;31.24;100114.78;5110263;28;19964;-66
2023/09/01 02:00:29;;;;;;;;;;;;;;;26.00;31.42;100114.28;5092545;28;19912;-67
2023/09/01 02:02:58;;;;;;;;;;;;;;;25.97;31.56;100112.97;5077098;28;19919;-66
2023/09/01 02:05:25;;;;;;;;;;;;;;;25.96;31.36;100118.78;5072562;28;20013;-66
2023/09/01 02:07:50;;;;;;;;;;;;;;;25.97;31.58;100117.66;5088485;28;20410;-67
2023/09/01 02:10:17;;;;;;;;;;;;;;;25.98;31.39;100128.34;5077854;28;20031;-67
2023/09/01 02:12:43;;;;;;;;;;;;;;;25.96;31.37;100119.59;5072461;28;19940;-66
2023/09/01 02:15:09;;;;;;;;;;;;;;;25.95;31.51;100120.72;5071139;28;20277;-66
2023/09/01 02:17:34;;;;;;;;;;;;;;;25.99;31.71;100129.19;5072684;28;20257;-67
2023/09/01 02:20:00;;;;;;;;;;;;;;;25.99;31.24;100124.50;5073034;28;19912;-67
2023/09/01 02:22:25;;;;;;;;;;;;;;;25.94;31.56;100130.09;5071555;28;20453;-67
2023/09/01 02:24:50;;;;;;;;;;;;;;;25.95;31.31;100130.94;5074436;28;19917;-67
2023/09/01 02:27:15;;;;;;;;;;;;;;;25.92;31.41;100139.75;5076394;28;19912;-66
2023/09/01 02:29:41;;;;;;;;;;;;;;;25.88;31.41;100134.84;5076252;28;20007;-67
2023/09/01 02:32:06;;;;;;;;;;;;;;;25.85;31.23;100142.88;5077099;28;19919;-67
2023/09/01 02:34:32;;;;;;;;;;;;;;;25.82;31.46;100138.00;5076824;28;19912;-67
2023/09/01 02:36:57;;;;;;;;;;;;;;;25.79;31.75;100139.41;5087722;28;19973;-67
2023/09/01 02:39:23;;;;;;;;;;;;;;;25.79;31.53;100142.16;5095893;28;19950;-66
2023/09/01 02:41:48;;;;;;;;;;;;;;;25.84;31.51;100141.28;5095696;28;20656;-67
2023/09/01 02:44:14;;;;;;;;;;;;;;;25.85;31.67;100140.97;5095864;28;19912;-66
2023/09/01 02:46:39;;;;;;;;;;;;;;;25.83;31.65;100139.63;5095936;28;19912;-67
2023/09/01 02:49:04;;;;;;;;;;;;;;;25.83;31.40;100142.38;5095786;28;19912;-66
2023/09/01 02:51:29;;;;;;;;;;;;;;;25.79;31.79;100142.16;5095313;28;20385;-67
2023/09/01 02:53:55;;;;;;;;;;;;;;;25.84;31.69;100141.28;5094957;28;19919;-67
2023/09/01 02:56:21;;;;;;;;;;;;;;;25.87;31.60;100140.66;5109903;28;20409;-67
2023/09/01 02:58:46;;;;;;;;;;;;;;;25.86;31.50;100145.34;5094480;28;19975;-67
2023/09/01 03:01:12;;;;;;;;;;;;;;;25.84;31.39;100141.28;5075029;28;20341;-67
2023/09/01 03:03:38;;;;;;;;;;;;;;;25.84;31.52;100146.78;5086815;28;20058;-67
2023/09/01 03:06:05;;;;;;;;;;;;;;;25.77;31.70;100144.41;5095144;28;19927;-67
2023/09/01 03:08:31;;;;;;;;;;;;;;;25.74;31.48;100147.75;5095466;28;19916;-66
2023/09/01 03:10:56;;;;;;;;;;;;;;;25.74;31.43;100146.94;5094899;28;19916;-67
2023/09/01 03:13:21;;;;;;;;;;;;;;;25.69;31.66;100148.69;5094926;28;20295;-67
2023/09/01 03:15:47;;;;;;;;;;;;;;;25.66;31.61;100148.47;5095320;28;19924;-66
2023/09/01 03:18:12;;;;;;;;;;;;;;;25.63;31.55;100147.16;5095050;28;19912;-66
2023/09/01 03:20:38;;;;;;;;;;;;;;;25.57;31.74;100159.34;5094896;28;19913;-66
2023/09/01 03:23:03;;;;;;;;;;;;;;;25.56;31.88;100156.91;5094950;28;19948;-66
2023/09/01 03:25:29;;;;;;;;;;;;;;;25.56;32.03;100149.47;5094842;28;19966;-67
2023/09/01 03:27:54;;;;;;;;;;;;;;;25.54;31.97;100159.97;5095228;28;19912;-66
2023/09/01 03:30:19;;;;;;;;;;;;;;;25.52;31.77;100162.19;5094815;28;19912;-66
2023/09/01 03:32:45;;;;;;;;;;;;;;;25.50;31.84;100157.00;5087077;28;19916;-66
2023/09/01 03:35:10;;;;;;;;;;;;;;;25.49;31.72;100154.53;5094521;28;19916;-66
2023/09/01 03:37:35;;;;;;;;;;;;;;;25.47;31.73;100146.59;5094446;28;19912;-66
2023/09/01 03:40:01;;;;;;;;;;;;;;;25.50;31.61;100150.66;5094613;28;19920;-66
2023/09/01 03:42:27;;;;;;;;;;;;;;;25.47;32.07;100151.28;5094698;28;19916;-66
2023/09/01 03:44:52;;;;;;;;;;;;;;;25.43;31.93;100159.31;5094695;28;19955;-66
2023/09/01 03:47:18;;;;;;;;;;;;;;;25.41;31.66;100152.50;5094406;28;19936;-67
2023/09/01 03:49:44;;;;;;;;;;;;;;;25.40;31.69;100156.34;5094207;28;20388;-66
2023/09/01 03:52:09;;;;;;;;;;;;;;;25.38;31.92;100155.84;5092036;28;19916;-67
2023/09/01 03:54:34;;;;;;;;;;;;;;;25.36;31.65;100156.13;5092701;28;19995;-66
2023/09/01 03:56:59;;;;;;;;;;;;;;;25.37;31.93;100156.94;5113335;28;20360;-66
2023/09/01 03:59:25;;;;;;;;;;;;;;;25.35;31.77;100159.16;5105575;28;19923;-66
2023/09/01 04:01:50;;;;;;;;;;;;;;;25.31;31.93;100147.97;5093570;28;19912;-66
2023/09/01 04:04:17;;;;;;;;;;;;;;;25.29;31.96;100164.75;5093923;28;20321;-66
2023/09/01 04:06:42;;;;;;;;;;;;;;;25.28;32.19;100157.63;5093756;28;20377;-66
2023/09/01 04:09:08;;;;;;;;;;;;;;;25.30;32.14;100158.16;5093991;28;19974;-66
2023/09/01 04:11:34;;;;;;;;;;;;;;;25.29;31.85;100155.69;5093693;28;19912;-66
2023/09/01 04:13:59;;;;;;;;;;;;;;;25.27;32.09;100158.72;5094084;28;19916;-66
2023/09/01 04:16:24;;;;;;;;;;;;;;;25.24;32.09;100158.50;5093915;28;19916;-66
2023/09/01 04:18:50;;;;;;;;;;;;;;;25.20;32.08;100169.25;5093734;28;19916;-66
2023/09/01 04:21:15;;;;;;;;;;;;;;;25.19;31.91;100159.41;5093984;28;19947;-66
2023/09/01 04:23:40;;;;;;;;;;;;;;;25.19;32.14;100170.38;5093725;28;20388;-66
2023/09/01 04:26:06;;;;;;;;;;;;;;;25.21;32.02;100170.09;5093744;28;20332;-66
2023/09/01 04:28:32;;;;;;;;;;;;;;;25.19;32.00;100167.63;5093598;28;19955;-66
2023/09/01 04:31:00;;;;;;;;;;;;;;;25.16;31.98;100172.91;5093663;28;19919;-66
2023/09/01 04:33:26;;;;;;;;;;;;;;;25.13;32.12;100171.59;5091820;28;19977;-66
2023/09/01 04:36:03;;;;;;;;;;;;;;;25.11;32.11;100176.53;5092844;28;19916;-66
2023/09/01 04:38:28;;;;;;;;;;;;;;;25.06;32.19;100174.72;5093441;28;19977;-66
2023/09/01 04:40:57;;;;;;;;;;;;;;;25.03;32.22;100180.78;5093637;28;20353;-66
2023/09/01 04:43:25;;;;;;;;;;;;;;;25.01;32.01;100182.22;5093102;28;19990;-66
2023/09/01 04:45:51;;;;;;;;;;;;;;;24.96;32.18;100185.03;5093388;28;20380;-66
2023/09/01 04:48:16;;;;;;;;;;;;;;;24.89;31.95;100177.97;5092896;28;19919;-66
2023/09/01 04:50:42;;;;;;;;;;;;;;;24.90;31.95;100181.53;5091945;28;19912;-66
2023/09/01 04:53:07;;;;;;;;;;;;;;;24.90;31.95;100187.03;5093570;28;20256;-66
2023/09/01 04:55:33;;;;;;;;;;;;;;;24.96;32.34;100179.53;5092395;28;19946;-66
2023/09/01 04:57:58;;;;;;;;;;;;;;;24.92;31.89;100182.88;5093380;28;19961;-66
2023/09/01 05:00:24;;;;;;;;;;;;;;;24.93;32.03;100186.44;5093171;28;19920;-66
2023/09/01 05:02:49;;;;;;;;;;;;;;;24.97;32.22;100197.66;5093092;28;19920;-66
2023/09/01 05:05:15;;;;;;;;;;;;;;;25.02;32.20;100192.91;5092760;28;19927;-66
2023/09/01 05:07:43;;;;;;;;;;;;;;;25.14;32.05;100194.38;5092535;28;21260;-66
2023/09/01 05:10:08;;;;;;;;;;;;;;;25.19;32.09;100192.38;5093055;28;19916;-66
2023/09/01 05:12:34;;;;;;;;;;;;;;;25.29;31.74;100197.72;5093374;28;19958;-66
2023/09/01 05:14:59;;;;;;;;;;;;;;;25.35;31.92;100192.16;5092957;28;19958;-66
2023/09/01 05:17:25;;;;;;;;;;;;;;;25.41;32.02;100199.22;5092952;28;20340;-66
2023/09/01 05:19:50;;;;;;;;;;;;;;;25.39;31.92;100188.53;5093129;28;19919;-67
2023/09/01 05:22:15;;;;;;;;;;;;;;;25.40;31.81;100192.09;5092921;28;20330;-67
2023/09/01 05:24:41;;;;;;;;;;;;;;;25.41;31.74;100196.47;5092691;28;20006;-67
2023/09/01 05:27:06;;;;;;;;;;;;;;;25.44;31.93;100195.84;5092824;28;19912;-67
2023/09/01 05:29:31;;;;;;;;;;;;;;;25.50;31.88;100202.91;5092973;28;20010;-67
2023/09/01 05:31:57;;;;;;;;;;;;;;;25.54;32.06;100192.97;5092630;28;20265;-67
2023/09/01 05:34:22;;;;;;;;;;;;;;;25.56;31.87;100198.97;5080650;28;19927;-67
2023/09/01 05:36:47;;;;;;;;;;;;;;;25.62;32.06;100199.69;5072267;28;19916;-67
2023/09/01 05:39:13;;;;;;;;;;;;;;;25.63;31.61;100201.31;5072351;28;19970;-67
2023/09/01 05:41:38;;;;;;;;;;;;;;;25.63;31.84;100199.41;5072299;28;19917;-67
2023/09/01 05:44:03;;;;;;;;;;;;;;;25.68;31.68;100209.50;5072505;28;19912;-67
2023/09/01 05:46:28;;;;;;;;;;;;;;;25.69;31.99;100200.13;5072385;28;19916;-67
2023/09/01 05:48:54;;;;;;;;;;;;;;;25.75;31.75;100198.09;5072274;28;19918;-67
2023/09/01 05:51:19;;;;;;;;;;;;;;;25.78;31.74;100197.47;5075380;28;20006;-67
2023/09/01 05:53:44;;;;;;;;;;;;;;;25.82;31.63;100199.34;5091836;28;20372;-66
2023/09/01 05:56:10;;;;;;;;;;;;;;;25.86;31.57;100202.31;5099601;28;20333;-66
2023/09/01 05:58:35;;;;;;;;;;;;;;;25.89;31.64;100204.44;5114016;28;19923;-66
2023/09/01 06:01:01;;;;;;;;;;;;;;;25.89;31.75;100204.44;5116848;28;19954;-66
2023/09/01 06:03:26;;;;;;;;;;;;;;;25.89;31.87;100204.44;5096915;28;20338;-66
2023/09/01 06:05:52;;;;;;;;;;;;;;;25.88;31.77;100202.81;5096151;28;19969;-66
2023/09/01 06:08:17;;;;;;;;;;;;;;;25.89;31.47;100202.53;5096312;28;19919;-66
2023/09/01 06:10:42;;;;;;;;;;;;;;;25.91;31.76;100193.13;5096324;28;20304;-66
2023/09/01 06:13:08;;;;;;;;;;;;;;;25.92;31.77;100209.38;5096384;28;20206;-66
2023/09/01 06:15:33;;;;;;;;;;;;;;;25.89;31.76;100208.03;5095243;28;20273;-65
2023/09/01 06:17:58;;;;;;;;;;;;;;;25.88;31.83;100209.13;5096669;28;19999;-66
2023/09/01 06:20:24;;;;;;;;;;;;;;;25.90;31.91;100206.09;5096264;28;19912;-66
2023/09/01 06:22:50;;;;;;;;;;;;;;;25.90;31.61;100208.81;5095905;28;20786;-66
2023/09/01 06:25:15;;;;;;;;;;;;;;;25.94;31.42;100214.56;5095514;28;19914;-66
2023/09/01 06:27:40;;;;;;;;;;;;;;;25.96;31.70;100212.34;5095964;28;19935;-66
2023/09/01 06:30:06;;;;;;;;;;;;;;;26.00;31.52;100216.94;5096058;28;19912;-67
2023/09/01 06:32:32;;;;;;;;;;;;;;;26.05;31.37;100214.06;5096076;28;20053;-67
2023/09/01 06:34:57;;;;;;;;;;;;;;;26.05;31.43;100211.31;5095816;28;19912;-67
2023/09/01 06:37:23;;;;;;;;;;;;;;;26.05;31.39;100205.81;5095992;28;19916;-66
2023/09/01 06:39:48;;;;;;;;;;;;;;;26.12;31.45;100215.63;5094412;28;20378;-67
2023/09/01 06:42:13;;;;;;;;;;;;;;;26.15;31.59;100215.84;5095608;28;19916;-66
2023/09/01 06:44:38;;;;;;;;;;;;;;;26.25;31.31;100214.81;5095487;28;20464;-66
2023/09/01 06:47:04;;;;;;;;;;;;;;;26.29;31.36;100215.03;5095939;28;19951;-66
2023/09/01 06:49:29;;;;;;;;;;;;;;;26.32;31.34;100211.66;5094417;28;20536;-66
2023/09/01 06:51:56;;;;;;;;;;;;;;;26.31;31.18;100219.09;5095465;28;19916;-66
2023/09/01 06:54:21;;;;;;;;;;;;;;;26.32;31.26;100220.75;5094575;28;20383;-66
2023/09/01 06:56:46;;;;;;;;;;;;;;;26.29;31.16;100226.84;5113163;28;19962;-66
2023/09/01 06:59:12;;;;;;;;;;;;;;;26.32;31.25;100226.25;5115443;28;19915;-66
2023/09/01 07:01:37;;;;;;;;;;;;;;;26.30;30.98;100223.00;5110998;28;19915;-66
2023/09/01 07:04:04;;;;;;;;;;;;;;;26.31;31.12;100221.84;5094841;28;19920;-66
2023/09/01 07:06:29;;;;;;;;;;;;;;;26.33;30.82;100230.63;5095431;28;19948;-65
2023/09/01 07:08:54;;;;;;;;;;;;;;;26.34;30.86;100226.75;5095322;28;19954;-65
2023/09/01 07:11:21;;;;;;;;;;;;;;;26.37;30.94;100231.63;5094349;28;20349;-66
2023/09/01 07:13:49;;;;;;;;;;;;;;;26.38;31.12;100233.28;5095090;28;20404;-66
2023/09/01 07:16:14;;;;;;;;;;;;;;;26.33;31.20;100236.13;5095145;28;20300;-66
2023/09/01 07:18:39;;;;;;;;;;;;;;;26.28;30.96;100239.00;5095093;28;19919;-66
2023/09/01 07:21:05;;;;;;;;;;;;;;;26.24;31.06;100233.28;5094873;28;19954;-66
2023/09/01 07:23:30;;;;;;;;;;;;;;;26.28;31.14;100236.25;5095092;28;19995;-66
2023/09/01 07:25:58;;;;;;;;;;;;;;;26.29;31.15;100237.88;5095151;28;19912;-67
2023/09/01 07:28:23;;;;;;;;;;;;;;;26.33;31.20;100238.06;5094562;28;19915;-66
2023/09/01 07:30:49;;;;;;;;;;;;;;;26.34;30.88;100246.03;5094755;28;19920;-66
2023/09/01 07:33:14;;;;;;;;;;;;;;;26.33;31.14;100241.63;5094405;28;20379;-66
2023/09/01 07:35:44;;;;;;;;;;;;;;;26.32;30.87;100240.03;5094593;28;19916;-66
2023/09/01 07:38:09;;;;;;;;;;;;;;;26.37;30.86;100250.09;5094381;28;19931;-66
2023/09/01 07:40:34;;;;;;;;;;;;;;;26.40;30.87;100247.56;5094514;28;19912;-66
2023/09/01 07:43:00;;;;;;;;;;;;;;;26.41;30.60;100246.44;5094648;28;20027;-66
2023/09/01 07:45:26;;;;;;;;;;;;;;;26.44;30.58;100245.00;5094161;28;20361;-66
2023/09/01 07:47:51;;;;;;;;;;;;;;;26.45;30.66;100247.47;5094585;28;19911;-66
2023/09/01 07:50:17;;;;;;;;;;;;;;;26.52;30.42;100244.28;5075604;28;20391;-66
2023/09/01 07:52:42;;;;;;;;;;;;;;;26.54;30.31;100250.34;5074112;28;19958;-66
2023/09/01 07:55:08;;;;;;;;;;;;;;;26.54;30.37;100252.25;5081566;28;19938;-66
2023/09/01 07:57:33;;;;;;;;;;;;;;;26.60;30.53;100251.06;5114076;28;20014;-66
2023/09/01 07:59:58;;;;;;;;;;;;;;;26.61;30.25;100255.44;5114203;28;19916;-66
2023/09/01 08:02:24;;;;;;;;;;;;;;;26.66;30.43;100260.84;5099538;28;19924;-66
2023/09/01 08:04:49;;;;;;;;;;;;;;;26.67;30.19;100251.47;5073641;28;19920;-66
2023/09/01 08:07:14;;;;;;;;;;;;;;;26.72;30.33;100256.88;5073864;28;19912;-66
2023/09/01 08:09:41;;;;;;;;;;;;;;;26.85;30.53;100253.28;5073562;28;19913;-66
2023/09/01 08:12:06;;;;;;;;;;;;;;;26.88;30.13;100260.13;5073947;28;20281;-66
2023/09/01 08:14:31;;;;;;;;;;;;;;;26.99;30.33;100258.78;5085606;28;19916;-66
2023/09/01 08:16:57;;;;;;;;;;;;;;;27.12;30.00;100261.81;5093501;28;19922;-66
2023/09/01 08:19:22;;;;;;;;;;;;;;;27.19;30.48;100265.78;5093617;28;19973;-66
2023/09/01 08:21:47;;;;;;;;;;;;;;;27.30;30.27;100271.91;5092742;28;20003;-66
2023/09/01 08:24:12;;;;;;;;;;;;;;;27.37;30.74;100272.28;5092595;28;20368;-66
2023/09/01 08:26:38;;;;;;;;;;;;;;;27.39;30.68;100270.03;5093492;28;20004;-66
2023/09/01 08:29:04;;;;;;;;;;;;;;;27.38;30.08;100267.59;5093385;28;19915;-66
2023/09/01 08:31:30;;;;;;;;;;;;;;;27.38;30.16;100267.59;5093275;28;19912;-67
2023/09/01 08:33:55;;;;;;;;;;;;;;;27.40;30.19;100270.88;5093777;28;19912;-67
2023/09/01 08:36:21;;;;;;;;;;;;;;;27.36;29.87;100273.44;5093216;28;19928;-66
2023/09/01 08:38:46;;;;;;;;;;;;;;;27.39;30.42;100269.22;5093522;28;19966;-66
2023/09/01 08:41:13;;;;;;;;;;;;;;;27.43;30.32;100272.97;5092972;28;20254;-66
2023/09/01 08:43:38;;;;;;;;;;;;;;;27.45;30.19;100267.16;5093041;28;20037;-67
2023/09/01 08:46:04;;;;;;;;;;;;;;;27.32;30.30;100272.44;5093524;28;20277;-67
2023/09/01 08:48:33;;;;;;;;;;;;;;;27.37;30.23;100274.22;5092579;28;20312;-67
2023/09/01 08:50:58;;;;;;;;;;;;;;;27.31;30.32;100276.28;5093263;28;19913;-67
2023/09/01 08:53:26;;;;;;;;;;;;;;;27.26;30.37;100272.84;5093243;28;19918;-66
2023/09/01 08:55:55;;;;;;;;;;;;;;;27.25;30.68;100269.25;5102683;28;20314;-66
2023/09/01 08:58:21;;;;;;;;;;;;;;;27.34;30.53;100270.16;5113628;28;20014;-67
2023/09/01 09:00:48;;;;;;;;;;;;;;;27.36;30.59;100269.88;5100766;28;19916;-66
2023/09/01 09:03:14;;;;;;;;;;;;;;;27.51;30.44;100271.44;5075390;28;19923;-66
2023/09/01 09:05:39;;;;;;;;;;;;;;;27.60;30.38;100272.34;5072754;28;19920;-66
2023/09/01 09:08:06;;;;;;;;;;;;;;;27.68;30.30;100276.28;5072725;28;19939;-67
2023/09/01 09:10:32;;;;;;;;;;;;;;;27.80;30.31;100273.75;5082785;28;20292;-67
2023/09/01 09:12:57;;;;;;;;;;;;;;;27.85;30.12;100268.09;5093040;28;19919;-67
2023/09/01 09:15:23;;;;;;;;;;;;;;;27.89;30.25;100268.28;5092646;28;19921;-66
2023/09/01 09:17:48;;;;;;;;;;;;;;;27.90;29.69;100269.97;5092755;28;19923;-67
2023/09/01 09:20:14;;;;;;;;;;;;;;;27.87;29.92;100271.38;5093363;28;20026;-66
2023/09/01 09:22:49;;;;;;;;;;;;;;;27.99;29.44;100260.59;5093246;28;19920;-66
2023/09/01 09:25:28;;;;;;;;;;;;;;;28.05;29.57;100274.28;5092933;28;19912;-66
2023/09/01 09:27:55;;;;;;;;;;;;;;;28.09;28.99;100276.06;5092823;28;19923;-66
2023/09/01 09:30:20;;;;;;;;;;;;;;;28.11;29.25;100273.00;5092743;28;19912;-66
2023/09/01 09:32:45;;;;;;;;;;;;;;;28.26;29.62;100263.50;5093065;28;19916;-66
2023/09/01 09:35:12;;;;;;;;;;;;;;;28.32;28.81;100259.47;5096655;28;19965;-67
2023/09/01 09:37:39;;;;;;;;;;;;;;;28.23;28.97;100267.72;5096629;28;19922;-67
2023/09/01 09:40:10;;;;;;;;;;;;;;;28.34;29.65;100266.31;5097074;28;19980;-66
2023/09/01 09:42:35;;;;;;;;;;;;;;;28.44;28.75;100269.94;5097013;28;19915;-67
2023/09/01 09:45:01;;;;;;;;;;;;;;;28.46;29.35;100270.41;5096804;28;20253;-67
2023/09/01 09:47:27;;;;;;;;;;;;;;;28.42;29.20;100274.94;5096626;28;19912;-67
2023/09/01 09:49:52;;;;;;;;;;;;;;;28.49;28.47;100269.75;5077224;28;19916;-67
2023/09/01 09:52:19;;;;;;;;;;;;;;;28.59;28.29;100268.72;5076444;28;19912;-67
2023/09/01 09:54:47;;;;;;;;;;;;;;;28.66;28.51;100266.28;5077642;28;19916;-67
2023/09/01 09:57:14;;;;;;;;;;;;;;;28.79;28.77;100270.88;5117185;28;19922;-67
2023/09/01 09:59:43;;;;;;;;;;;;;;;28.78;28.39;100269.25;5117127;28;19916;-67
2023/09/01 10:02:42;;;;;;;;;;;;;;;28.94;28.60;100269.63;5108292;28;19912;-66
2023/09/01 10:05:11;;;;;;;;;;;;;;;29.13;28.58;100270.16;5062617;28;19926;-66
2023/09/01 10:07:36;;;;;;;;;;;;;;;29.22;27.83;100274.91;5096190;28;19912;-66
2023/09/01 10:10:02;;;;;;;;;;;;;;;29.52;27.91;100264.81;5096251;28;19923;-66
2023/09/01 10:12:28;;;;;;;;;;;;;;;29.61;28.19;100259.28;5096147;28;19981;-66
2023/09/01 10:14:54;;;;;;;;;;;;;;;29.80;27.51;100261.72;5096067;28;19916;-66
2023/09/01 10:17:21;;;;;;;;;;;;;;;29.92;26.93;100265.44;5095682;28;19922;-66
2023/09/01 10:19:47;;;;;;;;;;;;;;;30.03;27.40;100259.53;5095762;28;20003;-66
2023/09/01 10:22:15;;;;;;;;;;;;;;;30.11;27.07;100261.47;5095432;28;19958;-68
2023/09/01 10:25:00;;;;;;;;;;;;;;;30.21;27.02;100258.34;5078549;28;20326;-66
2023/09/01 10:27:25;;;;;;;;;;;;;;;30.42;26.95;100258.47;5075046;28;20021;-67
2023/09/01 10:29:53;;;;;;;;;;;;;;;30.46;25.71;100266.91;5075457;28;19917;-66
2023/09/01 10:32:19;;;;;;;;;;;;;;;30.55;25.54;100269.63;5076264;28;19920;-67
2023/09/01 10:34:51;;;;;;;;;;;;;;;30.69;26.26;100265.47;5095801;28;19912;-66
2023/09/01 10:37:22;;;;;;;;;;;;;;;30.93;26.36;100260.50;5094600;28;20322;-66
2023/09/01 10:39:47;;;;;;;;;;;;;;;30.93;26.38;100261.31;5095504;28;19919;-66
2023/09/01 10:42:13;;;;;;;;;;;;;;;31.15;26.12;100260.19;5095491;28;20261;-66
2023/09/01 10:44:44;;;;;;;;;;;;;;;31.41;26.03;100257.19;5095038;28;19923;-66
2023/09/01 10:47:38;;;;;;;;;;;;;;;31.64;25.42;100254.06;5095130;28;20430;-66
2023/09/01 10:50:04;;;;;;;;;;;;;;;31.77;25.23;100264.06;5095463;28;19912;-66
2023/09/01 10:52:31;;;;;;;;;;;;;;;31.90;25.72;100255.78;5094317;28;19916;-66
2023/09/01 10:54:59;;;;;;;;;;;;;;;32.13;24.71;100258.97;5094991;28;20007;-66
2023/09/01 10:57:45;;;;;;;;;;;;;;;32.26;24.66;100257.81;5095093;28;20369;-66
2023/09/01 11:00:30;;;;;;;;;;;;;;;32.56;25.20;100261.22;5095312;28;19912;-66
2023/09/01 11:03:14;;;;;;;;;;;;;;;32.82;25.01;100257.31;5094982;28;19919;-66
2023/09/01 11:05:39;;;;;;;;;;;;;;;33.07;24.24;100257.25;5095116;28;20474;-66
2023/09/01 11:08:10;;;;;;;;;;;;;;;33.26;25.00;100257.44;5095131;28;19999;-66
2023/09/01 11:10:38;;;;;;;;;;;;;;;33.44;22.82;100260.75;5094975;28;19912;-66
2023/09/01 11:13:16;;;;;;;;;;;;;;;33.61;23.49;100262.44;5095224;28;20347;-66
2023/09/01 11:15:42;;;;;;;;;;;;;;;33.77;23.98;100261.69;5094865;28;19916;-66
2023/09/01 11:18:14;;;;;;;;;;;;;;;34.04;23.73;100266.41;5094873;28;20376;-66
2023/09/01 11:20:39;;;;;;;;;;;;;;;34.01;22.45;100260.72;5094301;28;19920;-66
2023/09/01 11:23:05;;;;;;;;;;;;;;;34.25;23.38;100260.63;5094844;28;19916;-66
2023/09/01 11:25:31;;;;;;;;;;;;;;;34.45;23.11;100258.69;5094660;28;19912;-66
2023/09/01 11:27:56;;;;;;;;;;;;;;;34.49;22.78;100261.56;5095011;28;19915;-66
2023/09/01 11:30:22;;;;;;;;;;;;;;;34.81;23.04;100267.97;5094281;28;20396;-66
2023/09/01 11:32:48;;;;;;;;;;;;;;;34.91;21.52;100261.00;5094716;28;19912;-66
2023/09/01 11:35:24;;;;;;;;;;;;;;;35.21;22.77;100257.69;5093423;28;20296;-66
2023/09/01 11:37:49;;;;;;;;;;;;;;;35.29;21.57;100262.28;5094835;28;19916;-66
2023/09/01 11:40:14;;;;;;;;;;;;;;;35.48;20.95;100262.25;5093438;28;20418;-66
2023/09/01 11:42:42;;;;;;;;;;;;;;;35.61;20.41;100271.28;5094823;28;19912;-66
2023/09/01 11:45:08;;;;;;;;;;;;;;;35.75;21.38;100275.56;5095028;28;20257;-66
2023/09/01 11:47:34;;;;;;;;;;;;;;;35.95;20.72;100273.56;5094407;28;19912;-66
2023/09/01 11:49:59;;;;;;;;;;;;;;;36.15;20.86;100268.72;5094447;28;19922;-66
2023/09/01 11:52:25;;;;;;;;;;;;;;;36.15;19.68;100268.72;5094249;28;19920;-67
2023/09/01 11:54:51;;;;;;;;;;;;;;;36.16;21.41;100271.16;5093467;28;19961;-67
2023/09/01 11:57:17;;;;;;;;;;;;;;;35.95;20.25;100273.56;5094028;28;19917;-67
2023/09/01 11:59:45;;;;;;;;;;;;;;;35.84;19.37;100274.16;5094092;28;19957;-67
2023/09/01 12:02:17;;;;;;;;;;;;;;;35.77;19.73;100281.59;5084888;28;19951;-67
2023/09/01 12:04:49;;;;;;;;;;;;;;;35.63;20.19;100279.31;5092652;28;19963;-67
2023/09/01 12:07:25;;;;;;;;;;;;;;;35.16;19.19;100280.28;5093682;28;20562;-67
2023/09/01 12:09:51;;;;;;;;;;;;;;;35.07;20.50;100288.88;5094258;28;19999;-67
2023/09/01 12:12:16;;;;;;;;;;;;;;;34.96;20.42;100290.63;5094137;28;20003;-67
2023/09/01 12:14:41;;;;;;;;;;;;;;;34.80;21.01;100299.81;5094177;28;20356;-67
2023/09/01 12:17:20;;;;;;;;;;;;;;;34.60;20.84;100296.13;5093694;28;20302;-67
2023/09/01 12:19:47;;;;;;;;;;;;;;;34.49;21.14;100298.66;5093657;28;19961;-66
2023/09/01 12:22:12;;;;;;;;;;;;;;;34.24;21.24;100292.44;5094087;28;20451;-66
2023/09/01 12:24:38;;;;;;;;;;;;;;;33.96;19.87;100295.25;5093815;28;19958;-66
2023/09/01 12:27:03;;;;;;;;;;;;;;;34.35;21.67;100292.72;5093401;28;19920;-66
2023/09/01 12:29:28;;;;;;;;;;;;;;;34.81;21.55;100287.50;5093394;28;20018;-66
2023/09/01 12:31:54;;;;;;;;;;;;;;;35.32;20.56;100297.03;5093510;28;19938;-67